createdAt,value
2018-02-25T00:00:44.466Z,0
2018-02-25T00:01:44.714Z,0
2018-02-25T00:02:44.676Z,0
2018-02-25T00:03:44.918Z,0
2018-02-25T00:04:44.632Z,0
2018-02-25T00:05:44.365Z,0
2018-02-25T00:06:44.580Z,0
2018-02-25T00:07:44.031Z,0
2018-02-25T00:08:44.268Z,0
2018-02-25T00:09:44.765Z,0
2018-02-25T00:10:44.247Z,0
2018-02-25T00:11:44.442Z,0
2018-02-25T00:12:44.186Z,0
2018-02-25T00:13:44.390Z,0
2018-02-25T00:14:44.628Z,0
2018-02-25T00:15:44.079Z,0
2018-02-25T00:16:43.775Z,0
2018-02-25T00:17:44.549Z,0
2018-02-25T00:18:44.355Z,0
2018-02-25T00:19:43.963Z,0
2018-02-25T00:20:43.933Z,0
2018-02-25T00:21:43.908Z,0
2018-02-25T00:22:44.148Z,0
2018-02-25T00:23:43.597Z,0
2018-02-25T00:24:43.829Z,0
2018-02-25T00:25:43.541Z,0
2018-02-25T00:26:44.036Z,0
2018-02-25T00:27:43.485Z,0
2018-02-25T00:28:43.730Z,0
2018-02-25T00:29:43.707Z,0
2018-02-25T00:30:43.947Z,0
2018-02-25T00:31:43.919Z,0
2018-02-25T00:32:43.618Z,0
2018-02-25T00:33:43.588Z,0
2018-02-25T00:34:43.560Z,0
2018-02-25T00:35:43.798Z,0
2018-02-25T00:36:43.506Z,0
2018-02-25T00:37:44.021Z,0
2018-02-25T00:38:43.719Z,0
2018-02-25T00:39:43.441Z,0
2018-02-25T00:40:43.401Z,0
2018-02-25T00:41:43.378Z,0
2018-02-25T00:42:43.612Z,0
2018-02-25T00:43:43.865Z,0
2018-02-25T00:44:43.293Z,0
2018-02-25T00:45:43.537Z,0
2018-02-25T00:46:43.245Z,0
2018-02-25T00:47:43.217Z,0
2018-02-25T00:48:43.716Z,0
2018-02-25T00:49:43.684Z,0
2018-02-25T00:50:43.448Z,0
2018-02-25T00:51:43.658Z,0
2018-02-25T00:52:43.084Z,0
2018-02-25T00:53:43.325Z,0
2018-02-25T00:54:43.293Z,0
2018-02-25T00:55:43.262Z,0
2018-02-25T00:56:42.977Z,0
2018-02-25T00:57:42.955Z,0
2018-02-25T00:58:42.655Z,0
2018-02-25T00:59:43.155Z,0
2018-02-25T01:00:42.601Z,0
2018-02-25T01:01:43.102Z,0
2018-02-25T01:02:42.813Z,0
2018-02-25T01:03:43.331Z,0
2018-02-25T01:04:42.757Z,0
2018-02-25T01:05:42.733Z,0
2018-02-25T01:06:43.247Z,0
2018-02-25T01:07:42.426Z,0
2018-02-25T01:08:42.917Z,0
2018-02-25T01:09:42.631Z,0
2018-02-25T01:10:43.131Z,0
2018-02-25T01:11:42.588Z,0
2018-02-25T01:12:42.335Z,0
2018-02-25T01:13:42.775Z,0
2018-02-25T01:14:42.751Z,0
2018-02-25T01:15:42.724Z,0
2018-02-25T01:16:42.463Z,0
2018-02-25T01:17:42.401Z,0
2018-02-25T01:18:42.643Z,0
2018-02-25T01:19:43.101Z,0
2018-02-25T01:20:42.870Z,0
2018-02-25T01:21:42.305Z,0
2018-02-25T01:22:42.808Z,0
2018-02-25T01:23:42.506Z,0
2018-02-25T01:24:41.954Z,0
2018-02-25T01:25:42.456Z,0
2018-02-25T01:26:42.426Z,0
2018-02-25T01:27:42.141Z,0
2018-02-25T01:28:42.118Z,0
2018-02-25T01:29:42.344Z,0
2018-02-25T01:30:42.355Z,0
2018-02-25T01:31:42.034Z,0
2018-02-25T01:32:42.003Z,0
2018-02-25T01:33:42.502Z,0
2018-02-25T01:34:41.957Z,0
2018-02-25T01:35:42.186Z,0
2018-02-25T01:36:41.628Z,0
2018-02-25T01:37:42.135Z,0
2018-02-25T01:38:42.179Z,0
2018-02-25T01:39:41.814Z,0
2018-02-25T01:40:42.084Z,0
2018-02-25T01:41:42.031Z,0
2018-02-25T01:42:41.735Z,0
2018-02-25T01:43:41.969Z,0
2018-02-25T01:44:41.947Z,0
2018-02-25T01:45:41.659Z,0
2018-02-25T01:46:42.164Z,0
2018-02-25T01:47:41.860Z,0
2018-02-25T01:48:41.848Z,0
2018-02-25T01:49:41.874Z,0
2018-02-25T01:50:41.784Z,0
2018-02-25T01:51:41.775Z,0
2018-02-25T01:52:41.996Z,0
2018-02-25T01:53:41.994Z,0
2018-02-25T01:54:41.143Z,0
2018-02-25T01:55:41.654Z,0
2018-02-25T01:56:41.362Z,0
2018-02-25T01:57:41.856Z,0
2018-02-25T01:58:41.300Z,0
2018-02-25T01:59:41.546Z,0
2018-02-25T02:00:41.516Z,0
2018-02-25T02:01:40.968Z,0
2018-02-25T02:02:41.244Z,0
2018-02-25T02:03:40.898Z,0
2018-02-25T02:04:41.397Z,0
2018-02-25T02:05:41.381Z,0
2018-02-25T02:06:41.611Z,0
2018-02-25T02:07:41.318Z,0
2018-02-25T02:08:41.291Z,0
2018-02-25T02:09:41.270Z,0
2018-02-25T02:10:41.230Z,0
2018-02-25T02:11:41.476Z,0
2018-02-25T02:12:41.234Z,0
2018-02-25T02:13:41.157Z,0
2018-02-25T02:14:41.394Z,0
2018-02-25T02:15:41.091Z,0
2018-02-25T02:16:41.072Z,0
2018-02-25T02:17:41.061Z,0
2018-02-25T02:18:41.075Z,0
2018-02-25T02:19:41.001Z,0
2018-02-25T02:20:40.980Z,0
2018-02-25T02:21:40.407Z,0
2018-02-25T02:22:40.641Z,0
2018-02-25T02:23:40.922Z,0
2018-02-25T02:24:40.609Z,0
2018-02-25T02:25:40.558Z,0
2018-02-25T02:26:40.589Z,0
2018-02-25T02:27:40.555Z,0
2018-02-25T02:28:40.742Z,0
2018-02-25T02:29:40.448Z,0
2018-02-25T02:30:40.971Z,0
2018-02-25T02:31:40.669Z,0
2018-02-25T02:32:40.374Z,0
2018-02-25T02:33:40.606Z,0
2018-02-25T02:34:40.583Z,0
2018-02-25T02:35:40.293Z,0
2018-02-25T02:36:40.537Z,0
2018-02-25T02:37:39.963Z,0
2018-02-25T02:38:40.762Z,0
2018-02-25T02:39:40.735Z,0
2018-02-25T02:40:40.417Z,0
2018-02-25T02:41:40.119Z,0
2018-02-25T02:42:40.368Z,0
2018-02-25T02:43:40.336Z,0
2018-02-25T02:44:40.078Z,0
2018-02-25T02:45:40.282Z,0
2018-02-25T02:46:39.999Z,0
2018-02-25T02:47:40.500Z,0
2018-02-25T02:48:39.978Z,0
2018-02-25T02:49:40.190Z,0
2018-02-25T02:50:40.199Z,0
2018-02-25T02:51:40.116Z,0
2018-02-25T02:52:40.106Z,0
2018-02-25T02:53:40.338Z,0
2018-02-25T02:54:39.783Z,0
2018-02-25T02:55:39.746Z,0
2018-02-25T02:56:40.004Z,0
2018-02-25T02:57:39.685Z,0
2018-02-25T02:58:40.192Z,0
2018-02-25T02:59:39.914Z,0
2018-02-25T03:00:39.602Z,0
2018-02-25T03:01:40.122Z,0
2018-02-25T03:02:39.815Z,0
2018-02-25T03:03:40.079Z,0
2018-02-25T03:04:39.765Z,0
2018-02-25T03:05:39.736Z,0
2018-02-25T03:06:39.439Z,0
2018-02-25T03:07:39.950Z,0
2018-02-25T03:08:39.649Z,0
2018-02-25T03:09:39.351Z,0
2018-02-25T03:10:39.586Z,0
2018-02-25T03:11:39.297Z,0
2018-02-25T03:12:39.008Z,0
2018-02-25T03:13:39.029Z,0
2018-02-25T03:14:39.756Z,0
2018-02-25T03:15:39.190Z,0
2018-02-25T03:16:39.424Z,0
2018-02-25T03:17:38.880Z,0
2018-02-25T03:18:39.386Z,0
2018-02-25T03:19:39.550Z,0
2018-02-25T03:20:39.322Z,0
2018-02-25T03:21:39.558Z,0
2018-02-25T03:22:38.993Z,0
2018-02-25T03:23:39.237Z,0
2018-02-25T03:24:38.931Z,0
2018-02-25T03:25:39.178Z,0
2018-02-25T03:26:39.152Z,0
2018-02-25T03:27:39.413Z,0
2018-02-25T03:28:38.829Z,0
2018-02-25T03:29:39.071Z,0
2018-02-25T03:30:39.321Z,0
2018-02-25T03:31:38.749Z,0
2018-02-25T03:32:38.982Z,0
2018-02-25T03:33:39.260Z,0
2018-02-25T03:34:38.403Z,0
2018-02-25T03:35:38.635Z,0
2018-02-25T03:36:38.882Z,0
2018-02-25T03:37:38.595Z,0
2018-02-25T03:38:39.083Z,0
2018-02-25T03:39:39.057Z,0
2018-02-25T03:40:38.503Z,0
2018-02-25T03:41:38.734Z,0
2018-02-25T03:42:38.973Z,0
2018-02-25T03:43:38.942Z,0
2018-02-25T03:44:38.391Z,0
2018-02-25T03:45:38.370Z,0
2018-02-25T03:46:38.595Z,0
2018-02-25T03:47:38.836Z,0
2018-02-25T03:48:38.540Z,0
2018-02-25T03:49:38.508Z,0
2018-02-25T03:50:38.482Z,0
2018-02-25T03:51:38.458Z,0
2018-02-25T03:52:38.702Z,0
2018-02-25T03:53:38.671Z,0
2018-02-25T03:54:38.397Z,0
2018-02-25T03:55:38.080Z,0
2018-02-25T03:56:38.062Z,0
2018-02-25T03:57:38.287Z,0
2018-02-25T03:58:38.269Z,0
2018-02-25T03:59:38.531Z,0
2018-02-25T04:00:37.674Z,0
2018-02-25T04:01:38.178Z,0
2018-02-25T04:02:38.463Z,0
2018-02-25T04:03:38.127Z,0
2018-02-25T04:04:37.884Z,0
2018-02-25T04:05:37.809Z,0
2018-02-25T04:06:37.781Z,0
2018-02-25T04:07:37.495Z,0
2018-02-25T04:08:37.744Z,0
2018-02-25T04:09:38.285Z,0
2018-02-25T04:10:38.205Z,0
2018-02-25T04:11:38.195Z,0
2018-02-25T04:12:38.147Z,0
2018-02-25T04:13:37.577Z,0
2018-02-25T04:14:37.550Z,0
2018-02-25T04:15:37.799Z,0
2018-02-25T04:16:38.036Z,0
2018-02-25T04:17:37.211Z,0
2018-02-25T04:18:37.705Z,0
2018-02-25T04:19:37.411Z,0
2018-02-25T04:20:37.118Z,0
2018-02-25T04:21:37.648Z,0
2018-02-25T04:22:37.331Z,0
2018-02-25T04:23:37.301Z,0
2018-02-25T04:24:37.534Z,0
2018-02-25T04:25:37.513Z,0
2018-02-25T04:26:37.483Z,0
2018-02-25T04:27:37.455Z,0
2018-02-25T04:28:37.429Z,0
2018-02-25T04:29:37.139Z,0
2018-02-25T04:30:37.636Z,0
2018-02-25T04:31:37.080Z,0
2018-02-25T04:32:37.334Z,0
2018-02-25T04:33:37.593Z,0
2018-02-25T04:34:37.258Z,0
2018-02-25T04:35:36.962Z,0
2018-02-25T04:36:37.202Z,0
2018-02-25T04:37:37.179Z,0
2018-02-25T04:38:36.629Z,0
2018-02-25T04:39:36.853Z,0
2018-02-25T04:40:37.095Z,0
2018-02-25T04:41:37.064Z,0
2018-02-25T04:42:36.503Z,0
2018-02-25T04:43:36.739Z,0
2018-02-25T04:44:36.713Z,0
2018-02-25T04:45:36.694Z,0
2018-02-25T04:46:37.221Z,0
2018-02-25T04:47:36.905Z,0
2018-02-25T04:48:37.131Z,0
2018-02-25T04:49:36.576Z,0
2018-02-25T04:50:36.829Z,0
2018-02-25T04:51:36.519Z,0
2018-02-25T04:52:36.758Z,0
2018-02-25T04:53:36.725Z,0
2018-02-25T04:54:36.449Z,0
2018-02-25T04:55:36.732Z,0
2018-02-25T04:56:36.378Z,0
2018-02-25T04:57:36.367Z,0
2018-02-25T04:58:36.601Z,0
2018-02-25T04:59:36.298Z,0
2018-02-25T05:00:36.536Z,0
2018-02-25T05:01:36.236Z,0
2018-02-25T05:02:36.208Z,0
2018-02-25T05:03:36.183Z,0
2018-02-25T05:04:36.413Z,0
2018-02-25T05:05:36.126Z,0
2018-02-25T05:06:36.107Z,0
2018-02-25T05:07:36.339Z,0
2018-02-25T05:08:36.327Z,0
2018-02-25T05:09:36.547Z,0
2018-02-25T05:10:35.718Z,0
2018-02-25T05:11:36.224Z,0
2018-02-25T05:12:36.189Z,0
2018-02-25T05:13:36.172Z,0
2018-02-25T05:14:36.401Z,0
2018-02-25T05:15:35.576Z,0
2018-02-25T05:16:35.810Z,0
2018-02-25T05:17:35.520Z,0
2018-02-25T05:18:35.753Z,0
2018-02-25T05:19:36.666Z,0
2018-02-25T05:20:35.698Z,0
2018-02-25T05:21:35.441Z,0
2018-02-25T05:22:35.909Z,0
2018-02-25T05:23:35.881Z,0
2018-02-25T05:24:35.324Z,0
2018-02-25T05:25:35.828Z,0
2018-02-25T05:26:35.812Z,0
2018-02-25T05:27:35.523Z,0
2018-02-25T05:28:35.478Z,0
2018-02-25T05:29:35.717Z,0
2018-02-25T05:30:35.419Z,0
2018-02-25T05:31:35.127Z,0
2018-02-25T05:32:35.628Z,0
2018-02-25T05:33:35.876Z,0
2018-02-25T05:34:35.578Z,0
2018-02-25T05:35:35.821Z,0
2018-02-25T05:36:35.527Z,0
2018-02-25T05:37:35.769Z,0
2018-02-25T05:38:35.482Z,0
2018-02-25T05:39:35.164Z,0
2018-02-25T05:40:35.137Z,0
2018-02-25T05:41:35.110Z,0
2018-02-25T05:42:35.077Z,0
2018-02-25T05:43:34.786Z,0
2018-02-25T05:44:35.028Z,0
2018-02-25T05:45:35.265Z,0
2018-02-25T05:46:34.961Z,0
2018-02-25T05:47:35.211Z,0
2018-02-25T05:48:34.911Z,0
2018-02-25T05:49:35.165Z,0
2018-02-25T05:50:35.116Z,0
2018-02-25T05:51:35.353Z,0
2018-02-25T05:52:34.791Z,0
2018-02-25T05:53:34.504Z,0
2018-02-25T05:54:35.003Z,4
2018-02-25T05:55:34.994Z,0
2018-02-25T05:56:34.686Z,0
2018-02-25T05:57:34.925Z,4
2018-02-25T05:58:34.625Z,4
2018-02-25T05:59:34.871Z,4
2018-02-25T06:00:34.577Z,4
2018-02-25T06:01:34.542Z,4
2018-02-25T06:02:34.516Z,4
2018-02-25T06:03:35.021Z,8
2018-02-25T06:04:34.479Z,8
2018-02-25T06:05:34.424Z,8
2018-02-25T06:06:34.428Z,16
2018-02-25T06:07:34.371Z,16
2018-02-25T06:08:34.876Z,20
2018-02-25T06:09:34.580Z,20
2018-02-25T06:10:34.023Z,28
2018-02-25T06:11:34.796Z,32
2018-02-25T06:12:34.758Z,36
2018-02-25T06:13:34.734Z,40
2018-02-25T06:14:34.708Z,48
2018-02-25T06:15:34.424Z,56
2018-02-25T06:16:33.860Z,64
2018-02-25T06:17:34.094Z,72
2018-02-25T06:18:34.335Z,80
2018-02-25T06:19:34.297Z,92
2018-02-25T06:20:34.009Z,100
2018-02-25T06:21:33.982Z,116
2018-02-25T06:22:34.209Z,124
2018-02-25T06:23:33.917Z,140
2018-02-25T06:24:34.167Z,152
2018-02-25T06:25:34.400Z,172
2018-02-25T06:26:33.834Z,184
2018-02-25T06:27:34.081Z,204
2018-02-25T06:28:33.781Z,224
2018-02-25T06:29:33.756Z,240
2018-02-25T06:30:33.984Z,260
2018-02-25T06:31:33.696Z,280
2018-02-25T06:32:33.667Z,304
2018-02-25T06:33:33.914Z,324
2018-02-25T06:34:33.890Z,348
2018-02-25T06:35:33.581Z,368
2018-02-25T06:36:33.820Z,396
2018-02-25T06:37:33.789Z,420
2018-02-25T06:38:33.233Z,440
2018-02-25T06:39:33.469Z,468
2018-02-25T06:40:33.707Z,492
2018-02-25T06:41:33.423Z,520
2018-02-25T06:42:33.654Z,548
2018-02-25T06:43:33.632Z,572
2018-02-25T06:44:33.321Z,600
2018-02-25T06:45:33.562Z,624
2018-02-25T06:46:33.269Z,652
2018-02-25T06:47:33.244Z,680
2018-02-25T06:48:32.949Z,708
2018-02-25T06:49:33.449Z,736
2018-02-25T06:50:33.416Z,764
2018-02-25T06:51:33.406Z,788
2018-02-25T06:52:32.829Z,816
2018-02-25T06:53:33.086Z,844
2018-02-25T06:54:33.052Z,868
2018-02-25T06:55:33.544Z,900
2018-02-25T06:56:32.980Z,924
2018-02-25T06:57:32.958Z,948
2018-02-25T06:58:33.205Z,976
2018-02-25T06:59:33.435Z,1000
2018-02-25T07:00:33.127Z,1028
2018-02-25T07:01:32.846Z,1052
2018-02-25T07:02:32.811Z,1076
2018-02-25T07:03:32.785Z,1100
2018-02-25T07:04:32.766Z,1128
2018-02-25T07:05:32.997Z,1152
2018-02-25T07:06:33.172Z,1180
2018-02-25T07:07:33.265Z,1200
2018-02-25T07:08:32.379Z,1224
2018-02-25T07:09:32.889Z,1244
2018-02-25T07:10:32.846Z,1272
2018-02-25T07:11:33.098Z,1292
2018-02-25T07:12:32.260Z,1312
2018-02-25T07:13:32.769Z,1340
2018-02-25T07:14:32.763Z,1360
2018-02-25T07:15:32.449Z,1380
2018-02-25T07:16:32.696Z,1400
2018-02-25T07:17:32.392Z,1420
2018-02-25T07:18:32.369Z,1444
2018-02-25T07:19:33.073Z,1464
2018-02-25T07:20:32.836Z,1484
2018-02-25T07:21:32.010Z,1500
2018-02-25T07:22:32.262Z,1520
2018-02-25T07:23:32.761Z,1540
2018-02-25T07:24:31.929Z,1564
2018-02-25T07:25:32.430Z,1584
2018-02-25T07:26:32.133Z,1604
2018-02-25T07:27:31.844Z,1620
2018-02-25T07:28:32.085Z,1640
2018-02-25T07:29:32.314Z,1660
2018-02-25T07:30:32.019Z,1676
2018-02-25T07:31:32.262Z,1700
2018-02-25T07:32:31.988Z,1716
2018-02-25T07:33:32.226Z,1732
2018-02-25T07:34:32.180Z,1748
2018-02-25T07:35:32.149Z,1768
2018-02-25T07:36:32.149Z,1784
2018-02-25T07:37:31.830Z,1800
2018-02-25T07:38:32.068Z,1816
2018-02-25T07:39:32.030Z,1832
2018-02-25T07:40:31.473Z,1848
2018-02-25T07:41:32.240Z,1864
2018-02-25T07:42:31.740Z,1884
2018-02-25T07:43:31.654Z,1900
2018-02-25T07:44:31.638Z,1916
2018-02-25T07:45:32.135Z,1936
2018-02-25T07:46:31.835Z,1956
2018-02-25T07:47:31.547Z,1972
2018-02-25T07:48:31.881Z,1984
2018-02-25T07:49:31.762Z,2004
2018-02-25T07:50:31.205Z,2024
2018-02-25T07:51:31.750Z,2040
2018-02-25T07:52:31.665Z,2056
2018-02-25T07:53:31.382Z,2072
2018-02-25T07:54:31.616Z,2084
2018-02-25T07:55:31.595Z,2100
2018-02-25T07:56:31.300Z,2112
2018-02-25T07:57:31.010Z,2128
2018-02-25T07:58:31.255Z,2144
2018-02-25T07:59:30.963Z,2160
2018-02-25T08:00:31.200Z,2176
2018-02-25T08:01:31.438Z,2196
2018-02-25T08:02:31.399Z,2212
2018-02-25T08:03:31.674Z,2236
2018-02-25T08:04:30.817Z,2256
2018-02-25T08:05:31.048Z,2284
2018-02-25T08:06:31.550Z,2304
2018-02-25T08:07:30.991Z,2336
2018-02-25T08:08:31.352Z,2372
2018-02-25T08:09:31.219Z,2424
2018-02-25T08:10:31.195Z,2480
2018-02-25T08:11:30.621Z,2536
2018-02-25T08:12:31.143Z,2608
2018-02-25T08:13:31.094Z,2672
2018-02-25T08:14:31.070Z,2740
2018-02-25T08:15:31.309Z,2800
2018-02-25T08:16:31.020Z,2876
2018-02-25T08:17:31.056Z,2936
2018-02-25T08:18:31.236Z,3004
2018-02-25T08:19:30.662Z,3076
2018-02-25T08:20:30.643Z,3128
2018-02-25T08:21:30.610Z,3184
2018-02-25T08:22:31.112Z,3268
2018-02-25T08:23:30.607Z,3356
2018-02-25T08:24:30.850Z,3432
2018-02-25T08:25:31.040Z,3508
2018-02-25T08:26:30.764Z,4548
2018-02-25T08:27:30.980Z,9060
2018-02-25T08:28:30.417Z,10644
2018-02-25T08:29:30.394Z,7248
2018-02-25T08:30:30.371Z,5456
2018-02-25T08:31:30.379Z,6812
2018-02-25T08:32:30.589Z,9524
2018-02-25T08:33:30.288Z,11568
2018-02-25T08:34:30.802Z,13040
2018-02-25T08:35:30.688Z,13904
2018-02-25T08:36:29.953Z,10972
2018-02-25T08:37:30.461Z,6448
2018-02-25T08:38:30.435Z,4580
2018-02-25T08:39:30.404Z,5568
2018-02-25T08:40:30.117Z,8768
2018-02-25T08:41:30.629Z,12476
2018-02-25T08:42:30.068Z,12760
2018-02-25T08:43:29.784Z,12960
2018-02-25T08:44:30.286Z,16384
2018-02-25T08:45:30.000Z,19776
2018-02-25T08:46:29.971Z,19008
2018-02-25T08:47:29.958Z,16448
2018-02-25T08:48:29.935Z,16384
2018-02-25T08:49:29.964Z,16384
2018-02-25T08:50:30.157Z,15264
2018-02-25T08:51:29.867Z,12144
2018-02-25T08:52:30.116Z,14592
2018-02-25T08:53:29.557Z,17632
2018-02-25T08:54:29.806Z,18304
2018-02-25T08:55:30.047Z,17024
2018-02-25T08:56:30.034Z,12964
2018-02-25T08:57:30.015Z,15508
2018-02-25T08:58:29.717Z,13156
2018-02-25T08:59:29.969Z,14208
2018-02-25T09:00:29.953Z,14656
2018-02-25T09:01:30.029Z,14976
2018-02-25T09:02:29.918Z,16416
2018-02-25T09:03:29.934Z,20032
2018-02-25T09:04:29.871Z,21120
2018-02-25T09:05:29.634Z,20608
2018-02-25T09:06:29.295Z,14804
2018-02-25T09:07:29.556Z,11252
2018-02-25T09:08:29.820Z,9948
2018-02-25T09:09:29.240Z,10100
2018-02-25T09:10:30.012Z,13540
2018-02-25T09:11:30.063Z,13580
2018-02-25T09:12:29.705Z,13280
2018-02-25T09:13:29.421Z,13864
2018-02-25T09:14:29.955Z,12996
2018-02-25T09:15:29.661Z,13624
2018-02-25T09:16:29.368Z,13368
2018-02-25T09:17:29.609Z,13280
2018-02-25T09:18:29.594Z,12360
2018-02-25T09:19:29.299Z,14688
2018-02-25T09:20:29.753Z,17184
2018-02-25T09:21:29.798Z,15776
2018-02-25T09:22:29.793Z,14176
2018-02-25T09:23:29.493Z,16768
2018-02-25T09:24:29.214Z,18528
2018-02-25T09:25:29.240Z,13312
2018-02-25T09:26:28.907Z,9008
2018-02-25T09:27:29.696Z,6660
2018-02-25T09:28:29.668Z,6512
2018-02-25T09:29:29.666Z,8356
2018-02-25T09:30:29.694Z,10192
2018-02-25T09:31:29.331Z,10708
2018-02-25T09:32:29.583Z,10012
2018-02-25T09:33:29.566Z,10224
2018-02-25T09:34:29.034Z,11644
2018-02-25T09:35:29.260Z,11644
2018-02-25T09:36:28.980Z,10928
2018-02-25T09:37:28.946Z,9720
2018-02-25T09:38:28.931Z,9100
2018-02-25T09:39:28.910Z,9864
2018-02-25T09:40:29.153Z,9776
2018-02-25T09:41:29.597Z,8208
2018-02-25T09:42:29.128Z,7964
2018-02-25T09:43:28.595Z,10376
2018-02-25T09:44:29.080Z,20832
2018-02-25T09:45:29.051Z,24768
2018-02-25T09:46:28.786Z,13736
2018-02-25T09:47:28.748Z,7288
2018-02-25T09:48:29.257Z,13532
2018-02-25T09:49:28.784Z,23552
2018-02-25T09:50:28.973Z,26528
2018-02-25T09:51:29.208Z,28384
2018-02-25T09:52:28.647Z,29440
2018-02-25T09:53:28.899Z,30432
2018-02-25T09:54:28.912Z,26144
2018-02-25T09:55:29.125Z,24192
2018-02-25T09:56:29.100Z,25984
2018-02-25T09:57:28.550Z,26432
2018-02-25T09:58:28.812Z,21248
2018-02-25T09:59:28.529Z,22336
2018-02-25T10:00:28.497Z,17536
2018-02-25T10:01:28.751Z,7736
2018-02-25T10:02:28.996Z,6948
2018-02-25T10:03:28.710Z,6636
2018-02-25T10:04:28.699Z,5136
2018-02-25T10:05:28.677Z,11440
2018-02-25T10:06:28.383Z,22400
2018-02-25T10:07:28.639Z,30464
2018-02-25T10:08:28.345Z,25920
2018-02-25T10:09:28.342Z,15532
2018-02-25T10:10:28.575Z,15148
2018-02-25T10:11:28.554Z,10512
2018-02-25T10:12:28.540Z,5656
2018-02-25T10:13:27.983Z,10844
2018-02-25T10:14:28.881Z,13616
2018-02-25T10:15:28.218Z,8132
2018-02-25T10:16:28.458Z,14900
2018-02-25T10:17:28.443Z,21664
2018-02-25T10:18:28.147Z,17472
2018-02-25T10:19:28.128Z,14936
2018-02-25T10:20:28.110Z,19424
2018-02-25T10:21:28.621Z,22048
2018-02-25T10:22:28.336Z,24160
2018-02-25T10:23:27.805Z,19584
2018-02-25T10:24:27.783Z,15424
2018-02-25T10:25:28.382Z,12404
2018-02-25T10:26:28.003Z,13724
2018-02-25T10:27:28.239Z,16456
2018-02-25T10:28:27.694Z,19040
2018-02-25T10:29:27.949Z,20352
2018-02-25T10:30:28.188Z,20736
2018-02-25T10:31:28.172Z,13340
2018-02-25T10:32:28.156Z,13372
2018-02-25T10:33:28.135Z,16180
2018-02-25T10:34:27.847Z,16000
2018-02-25T10:35:27.837Z,14480
2018-02-25T10:36:28.151Z,12796
2018-02-25T10:37:27.520Z,21056
2018-02-25T10:38:27.785Z,27232
2018-02-25T10:39:28.294Z,32352
2018-02-25T10:40:28.006Z,29408
2018-02-25T10:41:27.982Z,28640
2018-02-25T10:42:27.695Z,26240
2018-02-25T10:43:27.690Z,25728
2018-02-25T10:44:27.393Z,20384
2018-02-25T10:45:27.646Z,27776
2018-02-25T10:46:27.616Z,25216
2018-02-25T10:47:27.599Z,24576
2018-02-25T10:48:28.139Z,31776
2018-02-25T10:49:27.559Z,27456
2018-02-25T10:50:27.814Z,30720
2018-02-25T10:51:27.797Z,22208
2018-02-25T10:52:28.081Z,21344
2018-02-25T10:53:27.778Z,20064
2018-02-25T10:54:27.776Z,21888
2018-02-25T10:55:27.460Z,28640
2018-02-25T10:56:27.446Z,29728
2018-02-25T10:57:27.435Z,24352
2018-02-25T10:58:27.410Z,16960
2018-02-25T10:59:27.919Z,14348
2018-02-25T11:00:27.649Z,14616
2018-02-25T11:01:27.627Z,19360
2018-02-25T11:02:27.354Z,30400
2018-02-25T11:03:27.057Z,27968
2018-02-25T11:04:27.581Z,24128
2018-02-25T11:05:27.292Z,27040
2018-02-25T11:06:27.549Z,23584
2018-02-25T11:07:27.257Z,23200
2018-02-25T11:08:27.235Z,23264
2018-02-25T11:09:27.223Z,19712
2018-02-25T11:10:27.199Z,22432
2018-02-25T11:11:27.447Z,20384
2018-02-25T11:12:27.164Z,26368
2018-02-25T11:13:27.413Z,34848
2018-02-25T11:14:27.670Z,33312
2018-02-25T11:15:27.199Z,26400
2018-02-25T11:16:27.622Z,30144
2018-02-25T11:17:27.344Z,36416
2018-02-25T11:18:27.062Z,43904
2018-02-25T11:19:27.308Z,36128
2018-02-25T11:20:27.237Z,15840
2018-02-25T11:21:27.009Z,14328
2018-02-25T11:22:27.262Z,24192
2018-02-25T11:23:26.983Z,23584
2018-02-25T11:24:26.969Z,37408
2018-02-25T11:25:27.216Z,42368
2018-02-25T11:26:26.932Z,39936
2018-02-25T11:27:26.911Z,34240
2018-02-25T11:28:26.631Z,28352
2018-02-25T11:29:26.883Z,23424
2018-02-25T11:30:27.131Z,19968
2018-02-25T11:31:26.690Z,22016
2018-02-25T11:32:27.106Z,22656
2018-02-25T11:33:27.088Z,29376
2018-02-25T11:34:27.079Z,37184
2018-02-25T11:35:26.793Z,37984
2018-02-25T11:36:27.315Z,34144
2018-02-25T11:37:27.034Z,40096
2018-02-25T11:38:26.487Z,43232
2018-02-25T11:39:27.016Z,41984
2018-02-25T11:40:26.986Z,43744
2018-02-25T11:41:27.261Z,38144
2018-02-25T11:42:27.323Z,35872
2018-02-25T11:43:26.679Z,32096
2018-02-25T11:44:26.680Z,28672
2018-02-25T11:45:26.664Z,34368
2018-02-25T11:46:26.636Z,36096
2018-02-25T11:47:26.621Z,35296
2018-02-25T11:48:26.603Z,37376
2018-02-25T11:49:26.871Z,34080
2018-02-25T11:50:26.581Z,30752
2018-02-25T11:51:26.865Z,31648
2018-02-25T11:52:26.302Z,33408
2018-02-25T11:53:27.080Z,29792
2018-02-25T11:54:27.078Z,39360
2018-02-25T11:55:26.959Z,56288
2018-02-25T11:56:26.497Z,63072
2018-02-25T11:57:26.510Z,58656
2018-02-25T11:58:26.761Z,50656
2018-02-25T11:59:26.488Z,56224
2018-02-25T12:00:26.187Z,40736
2018-02-25T12:01:26.706Z,29312
2018-02-25T12:02:26.697Z,32640
2018-02-25T12:03:26.446Z,35040
2018-02-25T12:04:26.957Z,35424
2018-02-25T12:05:26.661Z,31328
2018-02-25T12:06:26.653Z,27200
2018-02-25T12:07:26.638Z,27552
2018-02-25T12:08:26.085Z,32960
2018-02-25T12:09:26.894Z,41792
2018-02-25T12:10:26.343Z,44256
2018-02-25T12:11:26.578Z,49568
2018-02-25T12:12:26.574Z,47968
2018-02-25T12:13:26.824Z,51488
2018-02-25T12:14:26.825Z,53728
2018-02-25T12:15:26.895Z,58560
2018-02-25T12:16:26.536Z,62528
2018-02-25T12:17:26.247Z,65440
2018-02-25T12:18:26.239Z,65024
2018-02-25T12:19:26.333Z,60800
2018-02-25T12:20:26.488Z,57216
2018-02-25T12:21:26.744Z,54432
2018-02-25T12:22:26.584Z,48416
2018-02-25T12:23:26.186Z,46944
2018-02-25T12:24:26.206Z,45280
2018-02-25T12:25:25.897Z,42944
2018-02-25T12:26:25.892Z,41088
2018-02-25T12:27:26.428Z,40512
2018-02-25T12:28:26.416Z,40544
2018-02-25T12:29:26.154Z,44288
2018-02-25T12:30:26.401Z,49504
2018-02-25T12:31:26.110Z,52288
2018-02-25T12:32:26.364Z,53760
2018-02-25T12:33:26.359Z,53120
2018-02-25T12:34:25.818Z,50368
2018-02-25T12:35:26.348Z,48064
2018-02-25T12:36:25.807Z,48160
2018-02-25T12:37:26.066Z,51296
2018-02-25T12:38:26.054Z,55168
2018-02-25T12:39:26.042Z,59168
2018-02-25T12:40:26.575Z,62304
2018-02-25T12:41:26.299Z,62112
2018-02-25T12:42:26.547Z,59616
2018-02-25T12:43:25.746Z,56896
2018-02-25T12:44:26.271Z,53856
2018-02-25T12:45:25.729Z,50816
2018-02-25T12:46:25.985Z,48512
2018-02-25T12:47:26.242Z,47040
2018-02-25T12:48:25.976Z,44768
2018-02-25T12:49:25.968Z,45120
2018-02-25T12:50:26.246Z,45472
2018-02-25T12:51:26.225Z,46240
2018-02-25T12:52:25.942Z,50336
2018-02-25T12:53:26.519Z,47840
2018-02-25T12:54:25.935Z,50624
2018-02-25T12:55:25.926Z,49568
2018-02-25T12:56:26.180Z,48736
2018-02-25T12:57:26.462Z,47680
2018-02-25T12:58:26.504Z,48064
2018-02-25T12:59:26.199Z,49440
2018-02-25T13:00:26.168Z,50976
2018-02-25T13:01:26.161Z,51872
2018-02-25T13:02:26.137Z,52000
2018-02-25T13:03:25.937Z,50304
2018-02-25T13:04:26.137Z,49696
2018-02-25T13:05:26.418Z,49600
2018-02-25T13:06:25.855Z,49792
2018-02-25T13:07:26.103Z,49216
2018-02-25T13:08:25.842Z,45888
2018-02-25T13:09:26.105Z,42144
2018-02-25T13:10:26.351Z,45856
2018-02-25T13:11:25.810Z,44544
2018-02-25T13:12:26.071Z,40352
2018-02-25T13:13:26.116Z,33408
2018-02-25T13:14:26.059Z,45696
2018-02-25T13:15:26.058Z,46464
2018-02-25T13:16:26.070Z,46720
2018-02-25T13:17:26.034Z,27744
2018-02-25T13:18:25.498Z,33472
2018-02-25T13:19:26.283Z,29824
2018-02-25T13:20:26.220Z,30560
2018-02-25T13:21:26.008Z,42944
2018-02-25T13:22:25.735Z,43744
2018-02-25T13:23:25.992Z,45536
2018-02-25T13:24:25.505Z,46336
2018-02-25T13:25:26.237Z,45472
2018-02-25T13:26:25.702Z,45280
2018-02-25T13:27:26.224Z,44352
2018-02-25T13:28:25.689Z,41696
2018-02-25T13:29:25.946Z,38624
2018-02-25T13:30:25.940Z,36576
2018-02-25T13:31:25.659Z,34784
2018-02-25T13:32:26.195Z,34304
2018-02-25T13:33:26.196Z,34656
2018-02-25T13:34:25.708Z,36448
2018-02-25T13:35:25.894Z,37344
2018-02-25T13:36:25.626Z,36576
2018-02-25T13:37:25.611Z,34336
2018-02-25T13:38:25.606Z,31968
2018-02-25T13:39:25.595Z,30624
2018-02-25T13:40:25.590Z,30624
2018-02-25T13:41:26.108Z,26368
2018-02-25T13:42:25.307Z,29376
2018-02-25T13:43:26.107Z,36224
2018-02-25T13:44:25.569Z,35584
2018-02-25T13:45:25.809Z,41472
2018-02-25T13:46:25.802Z,39200
2018-02-25T13:47:25.672Z,38496